sensor_id;sensor_type;location;lat;lon;timestamp;P1;P2;P0
69224;PMS1003;56333;51.306;17.056;2023-03-03T00:00:11;65.80;27.90;
69224;PMS1003;56333;51.306;17.056;2023-03-03T00:01:56;69.00;29.10;
69224;PMS1003;56333;51.306;17.056;2023-03-03T00:03:26;68.90;29.50;
69224;PMS1003;56333;51.306;17.056;2023-03-03T00:04:55;73.20;29.20;
69224;PMS1003;56333;51.306;17.056;2023-03-03T00:06:24;103.70;31.20;
69224;PMS1003;56333;51.306;17.056;2023-03-03T00:07:55;110.10;31.00;
69224;PMS1003;56333;51.306;17.056;2023-03-03T00:09:24;75.20;30.80;
69224;PMS1003;56333;51.306;17.056;2023-03-03T00:10:53;71.20;30.80;
69224;PMS1003;56333;51.306;17.056;2023-03-03T00:12:25;101.40;29.80;
69224;PMS1003;56333;51.306;17.056;2023-03-03T00:13:56;87.30;29.50;
69224;PMS1003;56333;51.306;17.056;2023-03-03T00:15:26;73.00;28.70;
69224;PMS1003;56333;51.306;17.056;2023-03-03T00:16:56;72.70;28.10;
69224;PMS1003;56333;51.306;17.056;2023-03-03T00:18:32;67.00;27.80;
69224;PMS1003;56333;51.306;17.056;2023-03-03T00:20:29;79.30;29.90;
69224;PMS1003;56333;51.306;17.056;2023-03-03T00:22:00;61.00;26.20;
69224;PMS1003;56333;51.306;17.056;2023-03-03T00:23:36;61.30;25.50;
69224;PMS1003;56333;51.306;17.056;2023-03-03T00:25:28;77.50;26.50;
69224;PMS1003;56333;51.306;17.056;2023-03-03T00:27:06;81.10;25.40;
69224;PMS1003;56333;51.306;17.056;2023-03-03T00:28:47;94.80;26.10;
69224;PMS1003;56333;51.306;17.056;2023-03-03T00:30:24;88.50;28.10;
69224;PMS1003;56333;51.306;17.056;2023-03-03T00:31:53;99.00;28.10;
69224;PMS1003;56333;51.306;17.056;2023-03-03T00:33:31;78.70;27.20;
69224;PMS1003;56333;51.306;17.056;2023-03-03T00:35:24;76.50;27.50;
69224;PMS1003;56333;51.306;17.056;2023-03-03T00:36:56;63.60;27.10;
69224;PMS1003;56333;51.306;17.056;2023-03-03T00:38:27;59.00;24.30;
69224;PMS1003;56333;51.306;17.056;2023-03-03T00:40:00;48.30;23.00;
69224;PMS1003;56333;51.306;17.056;2023-03-03T00:41:40;55.70;23.50;
69224;PMS1003;56333;51.306;17.056;2023-03-03T00:43:19;59.80;24.80;
69224;PMS1003;56333;51.306;17.056;2023-03-03T00:44:56;66.60;23.80;
69224;PMS1003;56333;51.306;17.056;2023-03-03T00:46:26;60.60;24.40;
69224;PMS1003;56333;51.306;17.056;2023-03-03T00:47:56;58.40;25.20;
69224;PMS1003;56333;51.306;17.056;2023-03-03T00:49:27;59.10;26.10;
69224;PMS1003;56333;51.306;17.056;2023-03-03T00:50:58;66.90;26.50;
69224;PMS1003;56333;51.306;17.056;2023-03-03T00:52:27;73.10;25.90;
69224;PMS1003;56333;51.306;17.056;2023-03-03T00:53:57;59.90;26.10;
69224;PMS1003;56333;51.306;17.056;2023-03-03T00:55:26;56.60;25.10;
69224;PMS1003;56333;51.306;17.056;2023-03-03T00:56:55;63.90;25.80;
69224;PMS1003;56333;51.306;17.056;2023-03-03T00:58:24;55.60;23.20;
69224;PMS1003;56333;51.306;17.056;2023-03-03T00:59:54;55.30;24.60;
69224;PMS1003;56333;51.306;17.056;2023-03-03T01:01:23;57.60;24.10;
69224;PMS1003;56333;51.306;17.056;2023-03-03T01:02:53;71.40;23.90;
69224;PMS1003;56333;51.306;17.056;2023-03-03T01:04:21;82.60;28.60;
69224;PMS1003;56333;51.306;17.056;2023-03-03T01:05:51;76.50;26.20;
69224;PMS1003;56333;51.306;17.056;2023-03-03T01:07:20;94.20;26.20;
69224;PMS1003;56333;51.306;17.056;2023-03-03T01:08:50;76.10;30.70;
69224;PMS1003;56333;51.306;17.056;2023-03-03T01:10:22;64.30;26.40;
69224;PMS1003;56333;51.306;17.056;2023-03-03T01:11:51;64.10;24.30;
69224;PMS1003;56333;51.306;17.056;2023-03-03T01:13:21;67.10;26.10;
69224;PMS1003;56333;51.306;17.056;2023-03-03T01:14:52;51.80;23.80;
69224;PMS1003;56333;51.306;17.056;2023-03-03T01:16:22;55.10;23.80;
69224;PMS1003;56333;51.306;17.056;2023-03-03T01:17:51;62.20;23.40;
69224;PMS1003;56333;51.306;17.056;2023-03-03T01:19:20;50.00;22.70;
69224;PMS1003;56333;51.306;17.056;2023-03-03T01:20:49;57.80;23.60;
69224;PMS1003;56333;51.306;17.056;2023-03-03T01:22:18;51.50;24.40;
69224;PMS1003;56333;51.306;17.056;2023-03-03T01:23:47;53.30;24.20;
69224;PMS1003;56333;51.306;17.056;2023-03-03T01:25:15;61.50;25.70;
69224;PMS1003;56333;51.306;17.056;2023-03-03T01:26:44;55.80;24.50;
69224;PMS1003;56333;51.306;17.056;2023-03-03T01:28:13;56.30;24.40;
69224;PMS1003;56333;51.306;17.056;2023-03-03T01:29:43;54.20;24.70;
69224;PMS1003;56333;51.306;17.056;2023-03-03T01:31:11;56.40;23.80;
69224;PMS1003;56333;51.306;17.056;2023-03-03T01:32:40;56.30;24.30;
69224;PMS1003;56333;51.306;17.056;2023-03-03T01:34:10;56.30;23.50;
69224;PMS1003;56333;51.306;17.056;2023-03-03T01:35:44;50.80;23.30;
69224;PMS1003;56333;51.306;17.056;2023-03-03T01:37:13;49.80;23.30;
69224;PMS1003;56333;51.306;17.056;2023-03-03T01:38:41;51.80;23.40;
69224;PMS1003;56333;51.306;17.056;2023-03-03T01:40:16;65.90;24.70;
69224;PMS1003;56333;51.306;17.056;2023-03-03T01:41:47;51.00;23.20;
69224;PMS1003;56333;51.306;17.056;2023-03-03T01:43:16;56.70;25.40;
69224;PMS1003;56333;51.306;17.056;2023-03-03T01:44:46;53.50;24.10;
69224;PMS1003;56333;51.306;17.056;2023-03-03T01:46:54;57.80;25.10;
69224;PMS1003;56333;51.306;17.056;2023-03-03T01:48:29;52.60;22.50;
69224;PMS1003;56333;51.306;17.056;2023-03-03T01:50:03;51.50;22.40;
69224;PMS1003;56333;51.306;17.056;2023-03-03T01:51:38;51.80;22.40;
69224;PMS1003;56333;51.306;17.056;2023-03-03T01:53:16;48.70;21.40;
69224;PMS1003;56333;51.306;17.056;2023-03-03T01:54:51;45.20;21.50;
69224;PMS1003;56333;51.306;17.056;2023-03-03T01:56:21;49.20;21.50;
69224;PMS1003;56333;51.306;17.056;2023-03-03T01:57:56;48.10;20.40;
69224;PMS1003;56333;51.306;17.056;2023-03-03T01:59:30;50.80;20.30;
69224;PMS1003;56333;51.306;17.056;2023-03-03T02:01:06;52.50;21.90;
69224;PMS1003;56333;51.306;17.056;2023-03-03T02:02:37;51.90;22.40;
69224;PMS1003;56333;51.306;17.056;2023-03-03T02:04:09;50.40;22.00;
69224;PMS1003;56333;51.306;17.056;2023-03-03T02:05:38;52.10;23.40;
69224;PMS1003;56333;51.306;17.056;2023-03-03T02:07:10;49.90;21.80;
69224;PMS1003;56333;51.306;17.056;2023-03-03T02:08:46;51.20;23.50;
69224;PMS1003;56333;51.306;17.056;2023-03-03T02:10:22;52.60;22.20;
69224;PMS1003;56333;51.306;17.056;2023-03-03T02:11:56;49.30;22.80;
69224;PMS1003;56333;51.306;17.056;2023-03-03T02:13:26;41.40;19.60;
69224;PMS1003;56333;51.306;17.056;2023-03-03T02:14:55;45.50;19.80;
69224;PMS1003;56333;51.306;17.056;2023-03-03T02:16:24;42.50;20.90;
69224;PMS1003;56333;51.306;17.056;2023-03-03T02:17:56;43.60;19.80;
69224;PMS1003;56333;51.306;17.056;2023-03-03T02:19:38;48.60;21.10;
69224;PMS1003;56333;51.306;17.056;2023-03-03T02:21:15;44.90;20.70;
69224;PMS1003;56333;51.306;17.056;2023-03-03T02:22:52;45.70;20.90;
69224;PMS1003;56333;51.306;17.056;2023-03-03T02:24:29;45.40;21.30;
69224;PMS1003;56333;51.306;17.056;2023-03-03T02:26:13;67.30;21.40;
69224;PMS1003;56333;51.306;17.056;2023-03-03T02:27:44;45.90;21.80;
69224;PMS1003;56333;51.306;17.056;2023-03-03T02:29:12;51.30;21.70;
69224;PMS1003;56333;51.306;17.056;2023-03-03T02:30:41;68.70;21.20;
69224;PMS1003;56333;51.306;17.056;2023-03-03T02:32:11;54.00;21.40;
69224;PMS1003;56333;51.306;17.056;2023-03-03T02:33:40;57.10;24.90;
69224;PMS1003;56333;51.306;17.056;2023-03-03T02:35:32;50.60;24.50;
69224;PMS1003;56333;51.306;17.056;2023-03-03T02:37:03;60.20;24.90;
69224;PMS1003;56333;51.306;17.056;2023-03-03T02:38:38;45.20;20.50;
69224;PMS1003;56333;51.306;17.056;2023-03-03T02:40:13;50.90;20.80;
69224;PMS1003;56333;51.306;17.056;2023-03-03T02:41:45;55.20;21.60;
69224;PMS1003;56333;51.306;17.056;2023-03-03T02:43:20;60.50;19.10;
69224;PMS1003;56333;51.306;17.056;2023-03-03T02:44:50;55.40;20.00;
69224;PMS1003;56333;51.306;17.056;2023-03-03T02:46:19;70.80;19.70;
69224;PMS1003;56333;51.306;17.056;2023-03-03T02:47:52;40.20;17.00;
69224;PMS1003;56333;51.306;17.056;2023-03-03T02:49:24;46.10;17.00;
69224;PMS1003;56333;51.306;17.056;2023-03-03T02:50:54;37.80;17.40;
69224;PMS1003;56333;51.306;17.056;2023-03-03T02:52:23;37.00;17.10;
69224;PMS1003;56333;51.306;17.056;2023-03-03T02:53:52;35.50;16.30;
69224;PMS1003;56333;51.306;17.056;2023-03-03T02:55:20;41.40;17.80;
69224;PMS1003;56333;51.306;17.056;2023-03-03T02:56:49;35.40;16.40;
69224;PMS1003;56333;51.306;17.056;2023-03-03T02:58:19;42.10;18.30;
69224;PMS1003;56333;51.306;17.056;2023-03-03T02:59:48;44.60;16.70;
69224;PMS1003;56333;51.306;17.056;2023-03-03T03:01:18;41.90;17.90;
69224;PMS1003;56333;51.306;17.056;2023-03-03T03:02:47;39.40;16.60;
69224;PMS1003;56333;51.306;17.056;2023-03-03T03:04:19;49.80;18.10;
69224;PMS1003;56333;51.306;17.056;2023-03-03T03:05:50;41.60;17.90;
69224;PMS1003;56333;51.306;17.056;2023-03-03T03:07:18;35.90;17.80;
69224;PMS1003;56333;51.306;17.056;2023-03-03T03:08:47;40.60;17.40;
69224;PMS1003;56333;51.306;17.056;2023-03-03T03:10:16;38.20;16.00;
69224;PMS1003;56333;51.306;17.056;2023-03-03T03:11:46;32.70;15.70;
69224;PMS1003;56333;51.306;17.056;2023-03-03T03:13:17;29.60;14.70;
69224;PMS1003;56333;51.306;17.056;2023-03-03T03:14:47;32.00;14.00;
69224;PMS1003;56333;51.306;17.056;2023-03-03T03:16:16;37.10;14.70;
69224;PMS1003;56333;51.306;17.056;2023-03-03T03:17:46;40.90;15.60;
69224;PMS1003;56333;51.306;17.056;2023-03-03T03:19:15;41.80;15.40;
69224;PMS1003;56333;51.306;17.056;2023-03-03T03:20:44;33.50;15.10;
69224;PMS1003;56333;51.306;17.056;2023-03-03T03:22:12;39.20;15.50;
69224;PMS1003;56333;51.306;17.056;2023-03-03T03:23:41;48.30;14.90;
69224;PMS1003;56333;51.306;17.056;2023-03-03T03:25:11;34.10;14.70;
69224;PMS1003;56333;51.306;17.056;2023-03-03T03:26:40;40.00;15.80;
69224;PMS1003;56333;51.306;17.056;2023-03-03T03:28:09;37.60;15.00;
69224;PMS1003;56333;51.306;17.056;2023-03-03T03:29:39;37.50;14.50;
69224;PMS1003;56333;51.306;17.056;2023-03-03T03:31:08;30.40;13.70;
69224;PMS1003;56333;51.306;17.056;2023-03-03T03:32:37;30.40;13.70;
69224;PMS1003;56333;51.306;17.056;2023-03-03T03:34:07;29.10;12.90;
69224;PMS1003;56333;51.306;17.056;2023-03-03T03:35:36;29.50;12.30;
69224;PMS1003;56333;51.306;17.056;2023-03-03T03:37:10;33.10;12.50;
69224;PMS1003;56333;51.306;17.056;2023-03-03T03:38:40;35.80;14.40;
69224;PMS1003;56333;51.306;17.056;2023-03-03T03:40:12;36.80;14.20;
69224;PMS1003;56333;51.306;17.056;2023-03-03T03:41:41;40.80;15.10;
69224;PMS1003;56333;51.306;17.056;2023-03-03T03:43:10;37.50;14.70;
69224;PMS1003;56333;51.306;17.056;2023-03-03T03:44:39;56.60;13.90;
69224;PMS1003;56333;51.306;17.056;2023-03-03T03:46:08;38.80;15.20;
69224;PMS1003;56333;51.306;17.056;2023-03-03T03:47:37;47.80;15.90;
69224;PMS1003;56333;51.306;17.056;2023-03-03T03:49:06;34.20;14.60;
69224;PMS1003;56333;51.306;17.056;2023-03-03T03:50:35;39.70;14.90;
69224;PMS1003;56333;51.306;17.056;2023-03-03T03:52:05;30.90;15.00;
69224;PMS1003;56333;51.306;17.056;2023-03-03T03:53:35;42.40;15.20;
69224;PMS1003;56333;51.306;17.056;2023-03-03T03:55:05;45.10;15.40;
69224;PMS1003;56333;51.306;17.056;2023-03-03T03:58:03;36.90;15.70;
69224;PMS1003;56333;51.306;17.056;2023-03-03T03:59:32;38.90;14.70;
69224;PMS1003;56333;51.306;17.056;2023-03-03T04:01:06;39.70;14.40;
69224;PMS1003;56333;51.306;17.056;2023-03-03T04:02:39;40.20;14.80;
69224;PMS1003;56333;51.306;17.056;2023-03-03T04:04:09;39.90;13.80;
69224;PMS1003;56333;51.306;17.056;2023-03-03T04:05:39;35.20;13.80;
69224;PMS1003;56333;51.306;17.056;2023-03-03T04:07:09;37.50;14.80;
69224;PMS1003;56333;51.306;17.056;2023-03-03T04:08:38;36.80;14.50;
69224;PMS1003;56333;51.306;17.056;2023-03-03T04:10:10;38.90;15.00;
69224;PMS1003;56333;51.306;17.056;2023-03-03T04:11:39;33.90;15.50;
69224;PMS1003;56333;51.306;17.056;2023-03-03T04:13:08;42.30;13.40;
69224;PMS1003;56333;51.306;17.056;2023-03-03T04:14:38;40.50;13.40;
69224;PMS1003;56333;51.306;17.056;2023-03-03T04:16:07;38.40;13.60;
69224;PMS1003;56333;51.306;17.056;2023-03-03T04:17:37;38.60;13.60;
69224;PMS1003;56333;51.306;17.056;2023-03-03T04:19:06;39.60;13.00;
69224;PMS1003;56333;51.306;17.056;2023-03-03T04:20:35;28.80;12.60;
69224;PMS1003;56333;51.306;17.056;2023-03-03T04:22:04;31.60;12.20;
69224;PMS1003;56333;51.306;17.056;2023-03-03T04:23:32;28.00;10.90;
69224;PMS1003;56333;51.306;17.056;2023-03-03T04:25:02;32.00;11.70;
69224;PMS1003;56333;51.306;17.056;2023-03-03T04:26:39;30.50;11.90;
69224;PMS1003;56333;51.306;17.056;2023-03-03T04:28:12;32.90;12.70;
69224;PMS1003;56333;51.306;17.056;2023-03-03T04:29:53;36.10;16.10;
69224;PMS1003;56333;51.306;17.056;2023-03-03T04:31:23;40.10;12.50;
69224;PMS1003;56333;51.306;17.056;2023-03-03T04:32:52;31.40;14.10;
69224;PMS1003;56333;51.306;17.056;2023-03-03T04:34:22;36.70;17.40;
69224;PMS1003;56333;51.306;17.056;2023-03-03T04:35:51;31.30;12.40;
69224;PMS1003;56333;51.306;17.056;2023-03-03T04:37:21;28.80;12.40;
69224;PMS1003;56333;51.306;17.056;2023-03-03T04:38:49;29.30;11.90;
69224;PMS1003;56333;51.306;17.056;2023-03-03T04:40:19;27.00;11.70;
69224;PMS1003;56333;51.306;17.056;2023-03-03T04:41:47;29.50;12.40;
69224;PMS1003;56333;51.306;17.056;2023-03-03T04:43:16;28.40;12.00;
69224;PMS1003;56333;51.306;17.056;2023-03-03T04:44:46;33.00;12.40;
69224;PMS1003;56333;51.306;17.056;2023-03-03T04:46:16;42.80;13.40;
69224;PMS1003;56333;51.306;17.056;2023-03-03T04:47:44;34.60;13.40;
69224;PMS1003;56333;51.306;17.056;2023-03-03T04:49:13;37.40;13.30;
69224;PMS1003;56333;51.306;17.056;2023-03-03T04:50:43;33.30;13.30;
69224;PMS1003;56333;51.306;17.056;2023-03-03T04:52:12;33.90;13.70;
69224;PMS1003;56333;51.306;17.056;2023-03-03T04:53:41;35.90;13.70;
69224;PMS1003;56333;51.306;17.056;2023-03-03T04:55:12;32.30;13.50;
69224;PMS1003;56333;51.306;17.056;2023-03-03T04:56:41;23.40;11.10;
69224;PMS1003;56333;51.306;17.056;2023-03-03T04:58:11;27.30;11.80;
69224;PMS1003;56333;51.306;17.056;2023-03-03T04:59:40;27.10;12.00;
69224;PMS1003;56333;51.306;17.056;2023-03-03T05:01:12;26.70;11.10;
69224;PMS1003;56333;51.306;17.056;2023-03-03T05:04:09;38.90;12.10;
69224;PMS1003;56333;51.306;17.056;2023-03-03T05:05:37;31.90;12.70;
69224;PMS1003;56333;51.306;17.056;2023-03-03T05:07:07;48.90;12.30;
69224;PMS1003;56333;51.306;17.056;2023-03-03T05:08:36;31.40;12.20;
69224;PMS1003;56333;51.306;17.056;2023-03-03T05:10:07;29.80;11.90;
69224;PMS1003;56333;51.306;17.056;2023-03-03T05:13:03;29.70;12.30;
69224;PMS1003;56333;51.306;17.056;2023-03-03T05:14:34;25.40;10.70;
69224;PMS1003;56333;51.306;17.056;2023-03-03T05:16:03;22.50;9.80;
69224;PMS1003;56333;51.306;17.056;2023-03-03T05:17:36;25.20;10.60;
69224;PMS1003;56333;51.306;17.056;2023-03-03T05:19:05;25.00;10.80;
69224;PMS1003;56333;51.306;17.056;2023-03-03T05:20:34;24.40;11.00;
69224;PMS1003;56333;51.306;17.056;2023-03-03T05:23:33;29.30;10.50;
69224;PMS1003;56333;51.306;17.056;2023-03-03T05:25:03;24.20;10.70;
69224;PMS1003;56333;51.306;17.056;2023-03-03T05:26:34;30.50;10.40;
69224;PMS1003;56333;51.306;17.056;2023-03-03T05:28:03;31.30;12.50;
69224;PMS1003;56333;51.306;17.056;2023-03-03T05:29:33;27.60;13.40;
69224;PMS1003;56333;51.306;17.056;2023-03-03T05:31:02;26.90;11.00;
69224;PMS1003;56333;51.306;17.056;2023-03-03T05:32:31;29.10;12.50;
69224;PMS1003;56333;51.306;17.056;2023-03-03T05:34:00;35.20;16.20;
69224;PMS1003;56333;51.306;17.056;2023-03-03T05:35:29;30.70;12.40;
69224;PMS1003;56333;51.306;17.056;2023-03-03T05:36:59;37.50;13.90;
69224;PMS1003;56333;51.306;17.056;2023-03-03T05:38:28;42.80;15.00;
69224;PMS1003;56333;51.306;17.056;2023-03-03T05:39:57;44.30;13.50;
69224;PMS1003;56333;51.306;17.056;2023-03-03T05:41:26;35.40;13.20;
69224;PMS1003;56333;51.306;17.056;2023-03-03T05:42:55;32.70;13.10;
69224;PMS1003;56333;51.306;17.056;2023-03-03T05:44:25;40.50;13.60;
69224;PMS1003;56333;51.306;17.056;2023-03-03T05:45:58;31.00;13.00;
69224;PMS1003;56333;51.306;17.056;2023-03-03T05:47:27;28.00;12.70;
69224;PMS1003;56333;51.306;17.056;2023-03-03T05:48:56;29.60;13.40;
69224;PMS1003;56333;51.306;17.056;2023-03-03T05:50:25;30.90;12.30;
69224;PMS1003;56333;51.306;17.056;2023-03-03T05:51:55;29.60;12.00;
69224;PMS1003;56333;51.306;17.056;2023-03-03T05:53:24;31.20;12.30;
69224;PMS1003;56333;51.306;17.056;2023-03-03T05:54:53;29.10;13.50;
69224;PMS1003;56333;51.306;17.056;2023-03-03T05:56:22;28.70;11.80;
69224;PMS1003;56333;51.306;17.056;2023-03-03T05:57:52;31.00;11.10;
69224;PMS1003;56333;51.306;17.056;2023-03-03T05:59:21;27.10;11.30;
69224;PMS1003;56333;51.306;17.056;2023-03-03T06:00:51;22.10;10.10;
69224;PMS1003;56333;51.306;17.056;2023-03-03T06:02:20;23.90;10.80;
69224;PMS1003;56333;51.306;17.056;2023-03-03T06:03:53;26.20;10.90;
69224;PMS1003;56333;51.306;17.056;2023-03-03T06:05:22;25.10;11.40;
69224;PMS1003;56333;51.306;17.056;2023-03-03T06:06:51;26.20;11.10;
69224;PMS1003;56333;51.306;17.056;2023-03-03T06:08:21;23.80;10.90;
69224;PMS1003;56333;51.306;17.056;2023-03-03T06:09:50;25.10;10.70;
69224;PMS1003;56333;51.306;17.056;2023-03-03T06:11:19;26.80;12.00;
69224;PMS1003;56333;51.306;17.056;2023-03-03T06:12:48;25.70;11.90;
69224;PMS1003;56333;51.306;17.056;2023-03-03T06:14:17;27.50;12.40;
69224;PMS1003;56333;51.306;17.056;2023-03-03T06:15:46;29.90;12.70;
69224;PMS1003;56333;51.306;17.056;2023-03-03T06:17:15;31.10;13.70;
69224;PMS1003;56333;51.306;17.056;2023-03-03T06:18:44;32.80;14.20;
69224;PMS1003;56333;51.306;17.056;2023-03-03T06:20:14;25.90;11.60;
69224;PMS1003;56333;51.306;17.056;2023-03-03T06:21:43;27.40;10.70;
69224;PMS1003;56333;51.306;17.056;2023-03-03T06:23:12;28.10;12.80;
69224;PMS1003;56333;51.306;17.056;2023-03-03T06:24:42;23.60;11.30;
69224;PMS1003;56333;51.306;17.056;2023-03-03T06:26:12;24.40;10.60;
69224;PMS1003;56333;51.306;17.056;2023-03-03T06:27:41;22.00;9.80;
69224;PMS1003;56333;51.306;17.056;2023-03-03T06:29:10;22.80;10.60;
69224;PMS1003;56333;51.306;17.056;2023-03-03T06:30:39;22.70;10.60;
69224;PMS1003;56333;51.306;17.056;2023-03-03T06:32:08;27.90;11.60;
69224;PMS1003;56333;51.306;17.056;2023-03-03T06:33:38;25.00;11.30;
69224;PMS1003;56333;51.306;17.056;2023-03-03T06:35:09;24.80;10.80;
69224;PMS1003;56333;51.306;17.056;2023-03-03T06:36:38;23.70;10.90;
69224;PMS1003;56333;51.306;17.056;2023-03-03T06:38:06;25.80;10.90;
69224;PMS1003;56333;51.306;17.056;2023-03-03T06:39:35;34.70;12.70;
69224;PMS1003;56333;51.306;17.056;2023-03-03T06:41:04;26.90;11.30;
69224;PMS1003;56333;51.306;17.056;2023-03-03T06:42:33;25.30;10.80;
69224;PMS1003;56333;51.306;17.056;2023-03-03T06:44:02;23.10;11.30;
69224;PMS1003;56333;51.306;17.056;2023-03-03T06:45:31;29.50;11.70;
69224;PMS1003;56333;51.306;17.056;2023-03-03T06:47:00;28.00;12.00;
69224;PMS1003;56333;51.306;17.056;2023-03-03T06:48:31;29.20;12.30;
69224;PMS1003;56333;51.306;17.056;2023-03-03T06:50:01;25.70;11.90;
69224;PMS1003;56333;51.306;17.056;2023-03-03T06:51:34;33.70;15.00;
69224;PMS1003;56333;51.306;17.056;2023-03-03T06:53:12;27.90;12.60;
69224;PMS1003;56333;51.306;17.056;2023-03-03T06:54:42;28.10;11.50;
69224;PMS1003;56333;51.306;17.056;2023-03-03T06:56:12;30.10;11.10;
69224;PMS1003;56333;51.306;17.056;2023-03-03T06:57:41;24.50;11.60;
69224;PMS1003;56333;51.306;17.056;2023-03-03T06:59:15;28.70;12.90;
69224;PMS1003;56333;51.306;17.056;2023-03-03T07:00:48;27.30;12.50;
69224;PMS1003;56333;51.306;17.056;2023-03-03T07:02:20;27.90;12.50;
69224;PMS1003;56333;51.306;17.056;2023-03-03T07:03:50;33.50;14.20;
69224;PMS1003;56333;51.306;17.056;2023-03-03T07:05:19;26.20;12.20;
69224;PMS1003;56333;51.306;17.056;2023-03-03T07:06:50;27.30;12.70;
69224;PMS1003;56333;51.306;17.056;2023-03-03T07:08:21;28.90;11.80;
69224;PMS1003;56333;51.306;17.056;2023-03-03T07:09:54;26.20;11.90;
69224;PMS1003;56333;51.306;17.056;2023-03-03T07:11:24;26.80;11.10;
69224;PMS1003;56333;51.306;17.056;2023-03-03T07:12:55;27.70;11.80;
69224;PMS1003;56333;51.306;17.056;2023-03-03T07:14:27;24.40;11.20;
69224;PMS1003;56333;51.306;17.056;2023-03-03T07:16:00;22.20;10.20;
69224;PMS1003;56333;51.306;17.056;2023-03-03T07:17:34;22.50;10.10;
69224;PMS1003;56333;51.306;17.056;2023-03-03T07:19:08;20.00;9.20;
69224;PMS1003;56333;51.306;17.056;2023-03-03T07:20:45;20.90;9.70;
69224;PMS1003;56333;51.306;17.056;2023-03-03T07:22:20;21.60;10.50;
69224;PMS1003;56333;51.306;17.056;2023-03-03T07:23:52;21.10;10.40;
69224;PMS1003;56333;51.306;17.056;2023-03-03T07:25:33;25.60;11.00;
69224;PMS1003;56333;51.306;17.056;2023-03-03T07:27:12;24.30;11.70;
69224;PMS1003;56333;51.306;17.056;2023-03-03T07:28:52;24.20;11.20;
69224;PMS1003;56333;51.306;17.056;2023-03-03T07:30:28;25.70;11.80;
69224;PMS1003;56333;51.306;17.056;2023-03-03T07:31:57;25.00;10.70;
69224;PMS1003;56333;51.306;17.056;2023-03-03T07:33:30;24.40;11.20;
69224;PMS1003;56333;51.306;17.056;2023-03-03T07:35:15;25.00;11.20;
69224;PMS1003;56333;51.306;17.056;2023-03-03T07:37:12;26.20;11.80;
69224;PMS1003;56333;51.306;17.056;2023-03-03T07:38:54;24.00;11.70;
69224;PMS1003;56333;51.306;17.056;2023-03-03T07:40:37;23.50;11.60;
69224;PMS1003;56333;51.306;17.056;2023-03-03T07:42:21;23.40;11.10;
69224;PMS1003;56333;51.306;17.056;2023-03-03T07:44:05;23.10;11.70;
69224;PMS1003;56333;51.306;17.056;2023-03-03T07:45:38;26.20;11.60;
69224;PMS1003;56333;51.306;17.056;2023-03-03T07:47:20;24.00;11.30;
69224;PMS1003;56333;51.306;17.056;2023-03-03T07:48:51;28.60;11.20;
69224;PMS1003;56333;51.306;17.056;2023-03-03T07:50:23;23.90;11.20;
69224;PMS1003;56333;51.306;17.056;2023-03-03T07:51:55;28.50;12.60;
69224;PMS1003;56333;51.306;17.056;2023-03-03T07:53:28;26.10;12.50;
69224;PMS1003;56333;51.306;17.056;2023-03-03T07:55:32;24.50;11.00;
69224;PMS1003;56333;51.306;17.056;2023-03-03T07:57:14;22.20;11.00;
69224;PMS1003;56333;51.306;17.056;2023-03-03T07:58:47;23.20;11.70;
69224;PMS1003;56333;51.306;17.056;2023-03-03T08:02:57;25.70;12.30;
69224;PMS1003;56333;51.306;17.056;2023-03-03T08:04:40;28.20;12.00;
69224;PMS1003;56333;51.306;17.056;2023-03-03T08:06:43;25.10;11.90;
69224;PMS1003;56333;51.306;17.056;2023-03-03T08:09:59;29.90;14.60;
69224;PMS1003;56333;51.306;17.056;2023-03-03T08:11:29;23.80;11.50;
69224;PMS1003;56333;51.306;17.056;2023-03-03T08:13:00;22.60;11.10;
69224;PMS1003;56333;51.306;17.056;2023-03-03T08:14:37;24.20;11.70;
69224;PMS1003;56333;51.306;17.056;2023-03-03T08:16:27;24.80;12.20;
69224;PMS1003;56333;51.306;17.056;2023-03-03T08:18:07;24.10;11.90;
69224;PMS1003;56333;51.306;17.056;2023-03-03T08:19:52;23.60;11.20;
69224;PMS1003;56333;51.306;17.056;2023-03-03T08:21:31;22.00;11.10;
69224;PMS1003;56333;51.306;17.056;2023-03-03T08:23:03;21.30;11.60;
69224;PMS1003;56333;51.306;17.056;2023-03-03T08:24:32;22.50;11.60;
69224;PMS1003;56333;51.306;17.056;2023-03-03T08:26:01;24.40;12.50;
69224;PMS1003;56333;51.306;17.056;2023-03-03T08:27:31;26.30;12.90;
69224;PMS1003;56333;51.306;17.056;2023-03-03T08:29:00;25.40;12.50;
69224;PMS1003;56333;51.306;17.056;2023-03-03T08:30:29;24.60;12.40;
69224;PMS1003;56333;51.306;17.056;2023-03-03T08:31:58;27.40;13.30;
69224;PMS1003;56333;51.306;17.056;2023-03-03T08:33:27;26.40;12.90;
69224;PMS1003;56333;51.306;17.056;2023-03-03T08:34:56;27.40;13.00;
69224;PMS1003;56333;51.306;17.056;2023-03-03T08:36:27;29.20;14.20;
69224;PMS1003;56333;51.306;17.056;2023-03-03T08:37:55;28.00;13.30;
69224;PMS1003;56333;51.306;17.056;2023-03-03T08:39:25;32.40;14.30;
69224;PMS1003;56333;51.306;17.056;2023-03-03T08:40:56;26.90;12.80;
69224;PMS1003;56333;51.306;17.056;2023-03-03T08:42:25;26.60;12.80;
69224;PMS1003;56333;51.306;17.056;2023-03-03T08:43:55;26.50;13.30;
69224;PMS1003;56333;51.306;17.056;2023-03-03T08:45:24;33.10;16.60;
69224;PMS1003;56333;51.306;17.056;2023-03-03T08:46:53;29.20;14.40;
69224;PMS1003;56333;51.306;17.056;2023-03-03T08:48:23;30.80;14.40;
69224;PMS1003;56333;51.306;17.056;2023-03-03T08:49:53;31.20;14.50;
69224;PMS1003;56333;51.306;17.056;2023-03-03T08:51:22;28.50;14.00;
69224;PMS1003;56333;51.306;17.056;2023-03-03T08:52:53;32.00;14.30;
69224;PMS1003;56333;51.306;17.056;2023-03-03T08:54:22;29.90;13.90;
69224;PMS1003;56333;51.306;17.056;2023-03-03T08:55:51;31.70;14.90;
69224;PMS1003;56333;51.306;17.056;2023-03-03T08:57:20;28.30;14.10;
69224;PMS1003;56333;51.306;17.056;2023-03-03T08:58:49;29.40;13.30;
69224;PMS1003;56333;51.306;17.056;2023-03-03T09:00:20;28.80;13.90;
69224;PMS1003;56333;51.306;17.056;2023-03-03T09:01:49;28.70;13.90;
69224;PMS1003;56333;51.306;17.056;2023-03-03T09:03:18;30.20;14.40;
69224;PMS1003;56333;51.306;17.056;2023-03-03T09:04:47;33.40;14.60;
69224;PMS1003;56333;51.306;17.056;2023-03-03T09:06:16;35.30;15.20;
69224;PMS1003;56333;51.306;17.056;2023-03-03T09:07:47;32.50;15.70;
69224;PMS1003;56333;51.306;17.056;2023-03-03T09:10:44;34.40;14.40;
69224;PMS1003;56333;51.306;17.056;2023-03-03T09:12:22;34.60;17.20;
69224;PMS1003;56333;51.306;17.056;2023-03-03T09:14:01;37.10;17.60;
69224;PMS1003;56333;51.306;17.056;2023-03-03T09:15:35;36.80;16.70;
69224;PMS1003;56333;51.306;17.056;2023-03-03T09:18:49;39.50;17.30;